Time;durP1;ratioP1;P1;durP2;ratioP2;P2;SDS_P1;SDS_P2;PMS_P1;PMS_P2;Temp;Humidity;BMP_temperature;BMP_pressure;BME280_temperature;BME280_humidity;BME280_pressure;Samples;Min_cycle;Max_cycle;Signal;HPM_P1;HPM_P2
2022/01/18 00:00:18;;;;;;;13.02;2.17;;;5.40;99.90;;;;;;5098247;28;20032;-67
2022/01/18 00:02:46;;;;;;;23.05;3.00;;;5.40;99.90;;;;;;5098377;28;20058;-67
2022/01/18 00:05:15;;;;;;;11.43;2.30;;;5.40;99.90;;;;;;5098513;28;20040;-67
2022/01/18 00:07:43;;;;;;;11.57;2.55;;;5.40;99.90;;;;;;5098451;28;20370;-67
2022/01/18 00:10:12;;;;;;;13.27;2.85;;;5.30;99.90;;;;;;5080563;28;20035;-67
2022/01/18 00:18:04;;;;;;;13.35;1.50;;;5.20;99.90;;;;;;5098328;28;20024;-67
2022/01/18 00:20:56;;;;;;;8.60;1.60;;;5.20;99.90;;;;;;5082224;28;20028;-67
2022/01/18 00:23:25;;;;;;;6.55;1.38;;;5.20;99.90;;;;;;5096692;28;20365;-67
2022/01/18 00:25:56;;;;;;;19.48;3.35;;;5.10;99.90;;;;;;5079250;28;20106;-67
2022/01/18 00:28:26;;;;;;;9.45;2.95;;;5.10;99.90;;;;;;5096849;28;20047;-67
2022/01/18 00:31:31;;;;;;;16.17;4.00;;;5.10;99.90;;;;;;5097117;28;20040;-67
2022/01/18 00:36:28;;;;;;;17.02;3.30;;;5.00;99.90;;;;;;5097009;28;20034;-67
2022/01/18 00:38:57;;;;;;;24.35;5.15;;;5.00;99.90;;;;;;5097198;28;20024;-67
2022/01/18 00:41:27;;;;;;;9.95;1.85;;;5.00;99.90;;;;;;5079418;28;20024;-67
2022/01/18 00:43:55;;;;;;;9.70;1.92;;;4.90;99.90;;;;;;5079844;28;20115;-67
2022/01/18 00:46:23;;;;;;;5.65;1.55;;;4.90;99.90;;;;;;5079965;28;20031;-67
2022/01/18 00:48:57;;;;;;;16.02;1.92;;;4.90;99.90;;;;;;5063205;28;20024;-67
2022/01/18 00:51:25;;;;;;;11.13;2.08;;;4.90;99.90;;;;;;5097847;28;20043;-67
2022/01/18 00:53:55;;;;;;;7.35;1.67;;;4.90;99.90;;;;;;5097851;28;20020;-67
2022/01/18 00:56:29;;;;;;;12.07;1.98;;;4.90;99.90;;;;;;5097480;28;20083;-67
2022/01/18 00:58:58;;;;;;;13.90;2.50;;;4.90;99.90;;;;;;5098010;28;20024;-67
2022/01/18 01:01:29;;;;;;;12.38;1.45;;;4.90;99.90;;;;;;5097067;28;20415;-67
2022/01/18 01:04:01;;;;;;;15.75;1.95;;;4.90;99.90;;;;;;5096854;28;20053;-67
2022/01/18 01:06:30;;;;;;;10.18;1.58;;;4.90;99.90;;;;;;5096424;28;20024;-67
2022/01/18 01:08:57;;;;;;;7.57;2.38;;;5.00;99.90;;;;;;5096600;28;20297;-67
2022/01/18 01:11:25;;;;;;;9.65;2.47;;;5.00;99.90;;;;;;5096841;28;20052;-67
2022/01/18 01:13:55;;;;;;;9.88;3.03;;;5.10;99.90;;;;;;5096699;28;20436;-67
2022/01/18 01:19:09;;;;;;;8.07;2.13;;;5.10;99.90;;;;;;5096501;28;20020;-67
2022/01/18 01:43:32;;;;;;;14.02;2.30;;;5.20;99.90;;;;;;5100940;28;20074;-67
2022/01/18 01:46:02;;;;;;;9.15;1.02;;;5.20;99.90;;;;;;5100261;28;20103;-67
2022/01/18 01:48:30;;;;;;;5.82;1.40;;;5.20;99.90;;;;;;5100766;28;20020;-67
2022/01/18 01:51:05;;;;;;;8.25;1.05;;;5.20;99.90;;;;;;5082132;28;20024;-67
2022/01/18 01:53:35;;;;;;;8.32;1.40;;;5.20;99.90;;;;;;5099978;28;20081;-67
2022/01/18 01:56:03;;;;;;;14.05;2.45;;;5.20;99.90;;;;;;5100042;28;20140;-67
2022/01/18 01:58:30;;;;;;;7.53;1.50;;;5.30;99.90;;;;;;5100282;28;20020;-67
2022/01/18 02:01:05;;;;;;;3.22;0.88;;;5.30;99.90;;;;;;5082709;28;20028;-67
2022/01/18 02:03:33;;;;;;;9.45;2.42;;;5.30;99.90;;;;;;5099824;28;20127;-67
2022/01/18 02:06:00;;;;;;;5.88;1.02;;;5.30;99.90;;;;;;5100635;28;20103;-67
2022/01/18 02:08:28;;;;;;;15.30;1.27;;;5.30;99.90;;;;;;5100711;28;20400;-67
2022/01/18 02:10:56;;;;;;;12.82;3.38;;;5.30;99.90;;;;;;5101090;28;20059;-67
2022/01/18 02:13:24;;;;;;;12.27;1.50;;;5.30;99.90;;;;;;5100579;28;20059;-67
2022/01/18 02:24:01;;;;;;;6.65;1.45;;;5.20;99.90;;;;;;5100456;28;20500;-67
2022/01/18 02:26:28;;;;;;;6.95;2.33;;;5.20;99.90;;;;;;5065034;28;20020;-67
2022/01/18 02:29:00;;;;;;;10.18;1.23;;;5.20;99.90;;;;;;5082403;28;20078;-67
2022/01/18 02:31:28;;;;;;;7.30;1.83;;;5.20;99.90;;;;;;5098287;28;20025;-67
2022/01/18 02:34:01;;;;;;;3.80;0.93;;;5.10;99.90;;;;;;5099341;28;20396;-67
2022/01/18 02:36:29;;;;;;;8.13;1.10;;;5.10;99.90;;;;;;5099232;28;20024;-67
2022/01/18 02:38:57;;;;;;;8.07;1.67;;;5.10;99.90;;;;;;5081365;28;20309;-67
2022/01/18 02:41:29;;;;;;;5.70;2.22;;;5.10;99.90;;;;;;5081323;28;20020;-67
2022/01/18 02:44:10;;;;;;;5.30;1.35;;;5.10;99.90;;;;;;5098448;28;20028;-67
2022/01/18 02:46:39;;;;;;;6.25;1.90;;;5.00;99.90;;;;;;5099160;28;20016;-68
2022/01/18 02:49:06;;;;;;;9.50;2.50;;;5.00;99.90;;;;;;5082230;28;20020;-67
2022/01/18 02:51:34;;;;;;;8.13;2.20;;;5.00;99.90;;;;;;5099946;28;20430;-67
2022/01/18 02:54:13;;;;;;;12.23;2.45;;;5.00;99.90;;;;;;5099801;28;20034;-67
2022/01/18 02:56:58;;;;;;;7.38;2.72;;;5.00;99.90;;;;;;5081898;28;20024;-67
2022/01/18 02:59:50;;;;;;;7.80;2.80;;;4.90;99.90;;;;;;5100206;28;20028;-67
2022/01/18 03:05:15;;;;;;;7.32;2.70;;;4.90;99.90;;;;;;5099926;28;20158;-67
2022/01/18 03:07:43;;;;;;;12.43;3.42;;;4.90;99.90;;;;;;5099094;28;20035;-67
2022/01/18 03:10:13;;;;;;;5.95;2.78;;;4.90;99.90;;;;;;5098601;28;20055;-67
2022/01/18 03:12:40;;;;;;;10.68;3.47;;;4.90;99.90;;;;;;5080677;28;20053;-67
2022/01/18 03:15:09;;;;;;;6.50;2.63;;;4.90;99.90;;;;;;5081177;28;20020;-67
2022/01/18 03:17:36;;;;;;;9.00;3.45;;;4.90;99.90;;;;;;5098611;28;20024;-67
2022/01/18 03:20:05;;;;;;;14.23;3.45;;;4.90;99.90;;;;;;5080500;28;20316;-67
2022/01/18 03:22:33;;;;;;;7.45;2.58;;;4.90;99.90;;;;;;5098234;28;20478;-67
2022/01/18 03:30:43;;;;;;;7.18;2.90;;;4.90;99.90;;;;;;5084003;28;20031;-67
2022/01/18 03:33:13;;;;;;;12.23;3.00;;;4.90;99.90;;;;;;5099007;28;20036;-67
2022/01/18 03:35:41;;;;;;;11.10;3.28;;;4.90;99.90;;;;;;5099186;28;20424;-67
2022/01/18 03:38:09;;;;;;;7.80;2.95;;;4.90;99.90;;;;;;5098878;28;20332;-67
2022/01/18 03:40:37;;;;;;;8.27;3.33;;;4.90;99.90;;;;;;5098850;28;20309;-67
2022/01/18 03:43:07;;;;;;;7.68;3.08;;;4.90;99.90;;;;;;5064400;28;20025;-66
2022/01/18 03:45:42;;;;;;;10.02;3.75;;;4.90;99.90;;;;;;5098141;28;20024;-67
2022/01/18 03:48:25;;;;;;;10.50;3.53;;;4.90;99.90;;;;;;5098760;28;20323;-67
2022/01/18 03:50:52;;;;;;;4.78;2.72;;;4.90;99.90;;;;;;5097995;28;20020;-67
2022/01/18 03:53:21;;;;;;;12.02;2.75;;;4.80;99.90;;;;;;5098096;28;20020;-67
2022/01/18 03:55:48;;;;;;;9.50;3.40;;;4.80;99.90;;;;;;5097319;28;20031;-67
2022/01/18 03:58:16;;;;;;;6.65;2.80;;;4.80;99.90;;;;;;5080225;28;20028;-66
2022/01/18 04:00:44;;;;;;;8.50;3.15;;;4.80;99.90;;;;;;5098230;28;20024;-66
2022/01/18 04:03:11;;;;;;;6.15;3.58;;;4.80;99.90;;;;;;5097599;28;20031;-66
2022/01/18 04:05:38;;;;;;;9.85;3.58;;;4.80;99.90;;;;;;5079770;28;20381;-67
2022/01/18 04:08:06;;;;;;;12.13;3.40;;;4.80;99.90;;;;;;5079464;28;20047;-67
2022/01/18 04:10:33;;;;;;;10.40;4.55;;;4.80;99.90;;;;;;5097493;28;20436;-66
2022/01/18 04:13:01;;;;;;;11.10;4.70;;;4.80;99.90;;;;;;5097874;28;20032;-67
2022/01/18 04:15:29;;;;;;;12.25;5.13;;;4.80;99.90;;;;;;5080728;28;20024;-67
2022/01/18 04:30:54;;;;;;;8.88;3.75;;;4.80;99.90;;;;;;5098151;28;20016;-66
2022/01/18 04:33:22;;;;;;;9.20;4.35;;;4.80;99.90;;;;;;5080203;28;20020;-67
2022/01/18 04:35:49;;;;;;;7.25;4.32;;;4.80;99.90;;;;;;5079291;28;20031;-67
2022/01/18 04:38:16;;;;;;;8.15;3.60;;;4.80;99.90;;;;;;5096952;28;20028;-66
2022/01/18 04:40:45;;;;;;;12.63;4.15;;;4.80;99.90;;;;;;5096878;28;20111;-67
2022/01/18 04:43:43;;;;;;;9.75;4.28;;;4.80;99.90;;;;;;5078929;28;20101;-67
2022/01/18 04:49:05;;;;;;;9.15;4.15;;;4.90;99.90;;;;;;5058680;28;20024;-67
2022/01/18 04:51:32;;;;;;;7.78;3.85;;;4.90;99.90;;;;;;5096809;28;20039;-66
2022/01/18 04:54:01;;;;;;;8.07;4.00;;;4.90;99.90;;;;;;5096975;28;20032;-67
2022/01/18 04:59:20;;;;;;;9.38;4.05;;;4.90;99.90;;;;;;5046043;28;20044;-66
2022/01/18 05:01:50;;;;;;;12.05;4.05;;;4.90;99.90;;;;;;5097934;28;20016;-67
2022/01/18 05:04:18;;;;;;;7.88;3.72;;;4.90;99.90;;;;;;5097463;28;20146;-67
2022/01/18 05:06:45;;;;;;;9.48;4.25;;;4.90;99.90;;;;;;5080364;28;20404;-67
2022/01/18 05:09:13;;;;;;;11.82;3.20;;;4.90;99.90;;;;;;5062859;28;20024;-67
2022/01/18 05:14:33;;;;;;;10.38;2.17;;;4.90;99.90;;;;;;5097270;28;20028;-67
2022/01/18 05:17:23;;;;;;;12.73;3.30;;;4.90;99.90;;;;;;5096336;28;20038;-67
2022/01/18 05:20:26;;;;;;;11.55;2.45;;;5.00;99.90;;;;;;5096494;28;20032;-67
2022/01/18 05:23:04;;;;;;;8.55;2.53;;;5.00;99.90;;;;;;5074932;28;20174;-67
2022/01/18 05:25:32;;;;;;;5.82;2.10;;;5.00;99.90;;;;;;5076106;28;20107;-67
2022/01/18 05:28:04;;;;;;;9.07;2.75;;;5.10;99.90;;;;;;5075184;28;20020;-67
2022/01/18 05:30:31;;;;;;;6.57;2.70;;;5.10;99.90;;;;;;5076240;28;20032;-67
2022/01/18 05:32:59;;;;;;;6.57;3.13;;;5.00;99.90;;;;;;5076489;28;20105;-67
2022/01/18 05:35:26;;;;;;;8.80;3.45;;;5.00;99.90;;;;;;5076330;28;20017;-67
2022/01/18 05:37:53;;;;;;;7.70;3.13;;;5.00;99.90;;;;;;5076824;28;20020;-67
2022/01/18 05:40:20;;;;;;;8.32;3.30;;;5.00;99.90;;;;;;5076986;28;20032;-67
2022/01/18 05:42:48;;;;;;;9.52;3.58;;;5.00;99.90;;;;;;5076989;28;20025;-66
2022/01/18 05:45:15;;;;;;;8.18;3.22;;;5.10;99.90;;;;;;5076656;28;20025;-67
2022/01/18 05:47:42;;;;;;;7.05;3.35;;;5.10;99.90;;;;;;5077473;28;20089;-67
2022/01/18 05:50:12;;;;;;;6.90;3.63;;;5.10;99.90;;;;;;5076009;28;20020;-67
2022/01/18 05:52:40;;;;;;;12.18;3.85;;;5.10;99.90;;;;;;5076963;28;20325;-67
2022/01/18 05:55:09;;;;;;;10.68;3.60;;;5.10;99.90;;;;;;5076861;28;20055;-67
2022/01/18 05:57:38;;;;;;;6.10;3.30;;;5.00;99.90;;;;;;5076638;28;20074;-67
2022/01/18 06:00:10;;;;;;;8.15;3.83;;;5.00;99.90;;;;;;5075920;28;20028;-66
2022/01/18 06:08:11;;;;;;;9.60;3.58;;;5.10;99.90;;;;;;5076081;28;20032;-66
2022/01/18 06:10:39;;;;;;;10.93;3.90;;;5.00;99.90;;;;;;5075870;28;20032;-66
2022/01/18 06:13:07;;;;;;;7.95;3.40;;;5.00;99.90;;;;;;5058235;28;20079;-66
2022/01/18 06:15:35;;;;;;;10.40;3.72;;;5.10;99.90;;;;;;5075742;28;20112;-67
2022/01/18 06:18:03;;;;;;;8.35;3.10;;;5.10;99.90;;;;;;5074789;28;20119;-67
2022/01/18 06:20:30;;;;;;;9.00;4.55;;;5.10;99.90;;;;;;5078777;28;20033;-67
2022/01/18 06:22:57;;;;;;;9.43;4.55;;;5.10;99.90;;;;;;5094786;28;20427;-67
2022/01/18 06:25:24;;;;;;;12.35;4.03;;;5.10;99.90;;;;;;5100511;28;20039;-67
2022/01/18 06:27:53;;;;;;;8.63;3.63;;;5.10;99.90;;;;;;5100335;28;20115;-67
2022/01/18 06:30:21;;;;;;;11.32;5.00;;;5.10;99.90;;;;;;5100767;28;20039;-67
2022/01/18 06:32:48;;;;;;;9.98;4.35;;;5.10;99.90;;;;;;5100622;28;20472;-67
2022/01/18 06:35:17;;;;;;;15.20;3.95;;;5.10;99.90;;;;;;5100264;28;20051;-67
2022/01/18 06:37:44;;;;;;;5.75;3.40;;;5.20;99.90;;;;;;5100325;28;20293;-67
2022/01/18 06:40:12;;;;;;;10.98;3.88;;;5.20;99.90;;;;;;5099297;28;20408;-67
2022/01/18 06:42:40;;;;;;;10.32;4.55;;;5.20;99.90;;;;;;5099747;28;20032;-67
2022/01/18 06:45:10;;;;;;;15.32;5.95;;;5.20;99.90;;;;;;5099774;28;20312;-67
2022/01/18 06:47:38;;;;;;;16.42;6.07;;;5.20;99.90;;;;;;5081178;28;20327;-67
2022/01/18 06:50:07;;;;;;;14.23;5.15;;;5.20;99.90;;;;;;5099278;28;20472;-67
2022/01/18 06:52:34;;;;;;;11.57;5.32;;;5.20;99.90;;;;;;5098960;28;20028;-67
2022/01/18 06:55:02;;;;;;;13.63;5.20;;;5.20;99.90;;;;;;5081779;28;20054;-67
2022/01/18 06:57:29;;;;;;;14.20;4.78;;;5.20;99.90;;;;;;5099486;28;20145;-67
2022/01/18 06:59:56;;;;;;;11.45;5.13;;;5.20;99.90;;;;;;5081282;28;20387;-68
2022/01/18 07:02:24;;;;;;;16.35;5.75;;;5.20;99.90;;;;;;5100252;28;20101;-67
2022/01/18 07:04:51;;;;;;;14.52;4.82;;;5.20;99.90;;;;;;5065219;28;20028;-67
2022/01/18 07:07:19;;;;;;;12.82;3.78;;;5.30;99.90;;;;;;5100259;28;20300;-67
2022/01/18 07:09:47;;;;;;;16.30;3.17;;;5.30;99.90;;;;;;5065222;28;20039;-66
2022/01/18 07:12:15;;;;;;;15.70;3.97;;;5.30;99.90;;;;;;5099476;28;20028;-67
2022/01/18 07:14:42;;;;;;;13.82;2.88;;;5.40;99.90;;;;;;5100137;28;20103;-69
2022/01/18 07:17:10;;;;;;;16.55;4.50;;;5.40;99.90;;;;;;5099700;28;20059;-69
2022/01/18 07:19:38;;;;;;;10.60;3.58;;;5.40;99.90;;;;;;5100075;28;20055;-69
2022/01/18 07:22:06;;;;;;;13.95;2.35;;;5.40;99.90;;;;;;5076876;28;20040;-69
2022/01/18 07:24:43;;;;;;;14.75;2.88;;;5.50;99.90;;;;;;5078158;28;20082;-69
2022/01/18 07:27:13;;;;;;;19.25;2.65;;;5.50;99.90;;;;;;5077036;28;20420;-68
2022/01/18 07:29:42;;;;;;;12.77;2.60;;;5.50;99.90;;;;;;5078197;28;20107;-70
2022/01/18 07:32:11;;;;;;;8.30;3.05;;;5.50;99.90;;;;;;5078450;28;20099;-68
2022/01/18 07:34:46;;;;;;;10.57;2.70;;;5.50;99.90;;;;;;5076772;28;20039;-71
2022/01/18 07:37:14;;;;;;;12.73;2.35;;;5.60;99.90;;;;;;5078135;28;20052;-71
2022/01/18 07:39:41;;;;;;;16.08;2.60;;;5.60;99.90;;;;;;5078512;28;20025;-68
2022/01/18 07:42:09;;;;;;;15.23;3.60;;;5.50;99.90;;;;;;5078393;28;20025;-69
2022/01/18 07:44:36;;;;;;;14.70;3.00;;;5.60;99.90;;;;;;5078645;28;20039;-71
2022/01/18 07:47:04;;;;;;;14.43;3.20;;;5.60;99.90;;;;;;5077604;28;20025;-70
2022/01/18 07:49:33;;;;;;;8.52;4.03;;;5.50;99.90;;;;;;5079335;28;20078;-71
2022/01/18 07:52:00;;;;;;;12.98;3.35;;;5.60;99.90;;;;;;5078547;28;20162;-71
2022/01/18 07:54:28;;;;;;;8.82;2.17;;;5.60;99.90;;;;;;5060784;28;20037;-71
2022/01/18 07:56:55;;;;;;;12.88;3.05;;;5.60;99.90;;;;;;5079019;28;20021;-71
2022/01/18 07:59:23;;;;;;;11.25;2.83;;;5.60;99.90;;;;;;5079029;28;20020;-70
2022/01/18 08:01:51;;;;;;;9.00;3.17;;;5.60;99.90;;;;;;5060782;28;20023;-69
2022/01/18 08:04:18;;;;;;;10.88;2.92;;;5.70;99.90;;;;;;5077550;28;20027;-70
2022/01/18 08:06:45;;;;;;;13.52;3.22;;;5.70;99.90;;;;;;5076351;28;20037;-70
2022/01/18 08:09:18;;;;;;;9.00;2.72;;;5.70;99.90;;;;;;5077409;28;20012;-68
2022/01/18 08:11:47;;;;;;;15.45;4.40;;;5.70;99.90;;;;;;5077149;28;20416;-71
2022/01/18 08:14:17;;;;;;;12.48;3.85;;;5.70;99.90;;;;;;5077148;28;20104;-71
2022/01/18 08:16:48;;;;;;;7.65;2.63;;;5.80;99.90;;;;;;5077037;28;20028;-69
2022/01/18 08:19:18;;;;;;;17.52;3.72;;;5.80;99.90;;;;;;5077291;28;20439;-69
2022/01/18 08:21:45;;;;;;;6.55;2.45;;;5.80;99.90;;;;;;5076021;28;20044;-71
2022/01/18 08:24:12;;;;;;;8.23;2.63;;;5.90;99.90;;;;;;5077349;28;20105;-76
2022/01/18 08:26:39;;;;;;;11.55;2.67;;;5.90;99.90;;;;;;5076714;28;20027;-69
2022/01/18 08:29:08;;;;;;;7.80;2.63;;;6.00;99.90;;;;;;5078396;28;20020;-69
2022/01/18 08:31:35;;;;;;;8.93;3.00;;;6.00;99.90;;;;;;5077893;28;20059;-69
2022/01/18 08:34:02;;;;;;;9.80;2.42;;;6.00;99.90;;;;;;5078366;28;20021;-69
2022/01/18 08:36:31;;;;;;;9.48;3.30;;;6.00;99.90;;;;;;5077889;28;20025;-68
2022/01/18 08:39:00;;;;;;;12.57;2.53;;;6.00;99.90;;;;;;5077843;28;20332;-69
2022/01/18 08:41:28;;;;;;;8.55;2.22;;;6.10;99.90;;;;;;5077963;28;20408;-68
2022/01/18 08:43:55;;;;;;;17.83;3.28;;;6.10;99.90;;;;;;5077373;28;20020;-66
2022/01/18 08:46:24;;;;;;;14.68;3.05;;;6.10;99.90;;;;;;5077419;28;20107;-66
2022/01/18 08:48:51;;;;;;;16.52;3.78;;;6.10;99.90;;;;;;5076816;28;20329;-66
2022/01/18 08:51:19;;;;;;;12.70;3.55;;;6.20;99.90;;;;;;5077002;28;20021;-66
2022/01/18 08:53:50;;;;;;;21.13;3.40;;;6.20;99.90;;;;;;5077238;28;20031;-66
2022/01/18 08:56:22;;;;;;;10.90;3.42;;;6.20;99.90;;;;;;5076276;28;20082;-66
2022/01/18 08:58:50;;;;;;;10.88;3.90;;;6.20;99.90;;;;;;5076798;28;20025;-66
2022/01/18 09:01:17;;;;;;;6.40;2.55;;;6.30;99.90;;;;;;5076788;28;20322;-66
2022/01/18 09:03:45;;;;;;;13.98;3.70;;;6.20;99.90;;;;;;5077071;28;20466;-80
2022/01/18 09:06:14;;;;;;;10.30;3.28;;;6.20;99.90;;;;;;5076459;28;20030;-66
2022/01/18 09:08:43;;;;;;;13.30;3.85;;;6.20;99.90;;;;;;5077212;28;20031;-66
2022/01/18 09:11:12;;;;;;;11.68;4.65;;;6.30;99.90;;;;;;5077359;28;20056;-66
2022/01/18 09:13:40;;;;;;;9.35;4.07;;;6.20;99.90;;;;;;5077586;28;20028;-66
2022/01/18 09:16:09;;;;;;;13.18;3.85;;;6.20;99.90;;;;;;5059618;28;20107;-65
2022/01/18 09:18:37;;;;;;;14.95;4.50;;;6.30;99.90;;;;;;5077422;28;20328;-66
2022/01/18 09:21:05;;;;;;;13.63;5.75;;;6.20;99.90;;;;;;5077137;28;20379;-66
2022/01/18 09:23:32;;;;;;;13.27;5.63;;;6.30;99.90;;;;;;5096289;28;20355;-66
2022/01/18 09:25:59;;;;;;;17.90;6.68;;;6.20;99.90;;;;;;5097421;28;20017;-66
2022/01/18 09:28:27;;;;;;;12.52;6.15;;;6.30;99.90;;;;;;5096708;28;20047;-68
2022/01/18 09:30:54;;;;;;;16.23;7.40;;;6.30;99.90;;;;;;5097290;28;20028;-66
2022/01/18 09:33:22;;;;;;;16.20;7.05;;;6.30;99.90;;;;;;5096351;28;20031;-66
2022/01/18 09:35:49;;;;;;;21.27;7.28;;;6.40;99.90;;;;;;5078493;28;20034;-67
2022/01/18 09:38:16;;;;;;;13.90;5.85;;;6.40;99.90;;;;;;5078446;28;20097;-66
2022/01/18 09:40:45;;;;;;;21.20;12.48;;;6.50;99.90;;;;;;5096642;28;20031;-66
2022/01/18 09:43:15;;;;;;;12.02;5.60;;;6.50;99.90;;;;;;5079109;28;20019;-66
2022/01/18 09:45:45;;;;;;;21.00;5.85;;;6.50;99.90;;;;;;5096460;28;20030;-67
2022/01/18 09:48:15;;;;;;;11.65;4.65;;;6.50;99.90;;;;;;5096362;28;20104;-66
2022/01/18 09:50:44;;;;;;;13.90;5.60;;;6.50;99.90;;;;;;5079155;28;20024;-66
2022/01/18 09:53:12;;;;;;;11.65;4.90;;;6.60;99.90;;;;;;5097211;28;20435;-66
2022/01/18 09:55:41;;;;;;;19.30;5.53;;;6.60;99.90;;;;;;5082050;28;20031;-66
2022/01/18 09:58:09;;;;;;;19.17;6.75;;;6.60;99.90;;;;;;5101048;28;20089;-66
2022/01/18 10:00:40;;;;;;;15.68;5.20;;;6.60;99.90;;;;;;5100987;28;20028;-66
2022/01/18 10:03:48;;;;;;;17.25;6.50;;;6.60;99.90;;;;;;5100996;28;20081;-66
2022/01/18 10:06:21;;;;;;;15.02;6.90;;;6.70;99.90;;;;;;5097927;28;20047;-66
2022/01/18 10:08:49;;;;;;;16.23;6.28;;;6.70;99.90;;;;;;5100989;28;20111;-66
2022/01/18 10:11:19;;;;;;;19.75;7.50;;;6.70;99.90;;;;;;5100064;28;20024;-66
2022/01/18 10:13:49;;;;;;;20.00;5.90;;;6.70;99.90;;;;;;5100061;28;20042;-66
2022/01/18 10:16:23;;;;;;;17.17;4.60;;;6.80;99.90;;;;;;5100022;28;20081;-66
2022/01/18 10:18:56;;;;;;;13.57;5.78;;;6.80;99.90;;;;;;5099782;28;20028;-66
2022/01/18 10:21:35;;;;;;;16.60;7.85;;;6.80;99.90;;;;;;5099337;28;20423;-66
2022/01/18 10:24:22;;;;;;;19.55;6.03;;;6.80;99.90;;;;;;5099687;28;20031;-66
2022/01/18 10:26:55;;;;;;;25.63;7.03;;;6.80;99.90;;;;;;5099553;28;20024;-66
2022/01/18 10:29:37;;;;;;;19.60;7.05;;;6.90;99.90;;;;;;5081641;28;20020;-66
2022/01/18 10:32:20;;;;;;;15.77;6.25;;;6.90;99.90;;;;;;5099669;28;20021;-66
2022/01/18 10:37:29;;;;;;;18.77;7.03;;;7.00;99.90;;;;;;5100352;28;20069;-66
2022/01/18 10:40:17;;;;;;;21.25;7.55;;;7.00;99.90;;;;;;5099822;28;20047;-66
2022/01/18 10:42:50;;;;;;;19.52;5.53;;;7.00;99.90;;;;;;5100222;28;20024;-66
2022/01/18 10:45:33;;;;;;;16.27;6.38;;;7.00;99.90;;;;;;5100344;28;20020;-66
2022/01/18 10:48:17;;;;;;;11.35;5.75;;;7.10;99.90;;;;;;5101005;28;20045;-66
2022/01/18 10:50:46;;;;;;;19.55;7.38;;;7.00;99.90;;;;;;5100009;28;20097;-66
2022/01/18 10:53:19;;;;;;;18.20;7.53;;;7.00;99.90;;;;;;5099188;28;20024;-66
2022/01/18 10:55:48;;;;;;;21.70;6.68;;;7.00;99.90;;;;;;5098987;28;20141;-66
2022/01/18 10:58:26;;;;;;;19.75;5.95;;;7.00;99.90;;;;;;5098897;28;20032;-66
2022/01/18 11:00:54;;;;;;;18.75;6.45;;;7.00;99.90;;;;;;5098866;28;20103;-66
2022/01/18 11:03:21;;;;;;;21.83;6.47;;;7.00;99.90;;;;;;5098884;28;20480;-66
2022/01/18 11:05:50;;;;;;;22.13;5.72;;;7.10;99.90;;;;;;5099131;28;20058;-66
2022/01/18 11:08:18;;;;;;;15.23;5.88;;;7.20;99.90;;;;;;5080987;28;20428;-66
2022/01/18 11:10:48;;;;;;;17.67;4.45;;;7.30;99.90;;;;;;5099655;28;20036;-66
2022/01/18 11:13:23;;;;;;;12.70;4.45;;;7.30;99.90;;;;;;5099178;28;20024;-66
2022/01/18 11:16:01;;;;;;;15.43;3.65;;;7.30;99.90;;;;;;5100388;28;20055;-66
2022/01/18 11:18:31;;;;;;;15.88;4.82;;;7.30;99.90;;;;;;5099547;28;20036;-66
2022/01/18 11:21:03;;;;;;;23.70;4.70;;;7.30;99.90;;;;;;5081706;28;20032;-66
2022/01/18 11:23:35;;;;;;;14.50;4.80;;;7.40;99.90;;;;;;5099360;28;20168;-66
2022/01/18 11:26:03;;;;;;;14.85;5.22;;;7.40;99.90;;;;;;5099919;28;20024;-66
2022/01/18 11:28:34;;;;;;;20.92;4.82;;;7.40;99.90;;;;;;5099231;28;20032;-66
2022/01/18 11:31:02;;;;;;;20.63;6.00;;;7.40;99.90;;;;;;5099024;28;20020;-66
2022/01/18 11:33:36;;;;;;;16.17;4.53;;;7.50;99.90;;;;;;5099168;28;20035;-66
2022/01/18 11:36:13;;;;;;;17.02;4.00;;;7.60;99.90;;;;;;5097253;28;20424;-66
2022/01/18 11:39:01;;;;;;;20.55;4.43;;;7.60;99.90;;;;;;5098694;28;20027;-66
2022/01/18 11:41:34;;;;;;;18.20;4.70;;;7.50;99.90;;;;;;5098096;28;20024;-66
2022/01/18 11:44:20;;;;;;;24.88;4.82;;;7.60;99.90;;;;;;5098049;28;20335;-66
2022/01/18 11:46:50;;;;;;;22.35;5.30;;;7.60;99.90;;;;;;5098335;28;20027;-66
2022/01/18 11:49:28;;;;;;;25.08;5.57;;;7.50;99.90;;;;;;5098149;28;20023;-66
2022/01/18 11:52:00;;;;;;;18.58;6.15;;;7.50;99.90;;;;;;5097721;28;20031;-67
2022/01/18 11:54:38;;;;;;;18.83;5.38;;;7.40;99.90;;;;;;5098125;28;20305;-66
2022/01/18 11:57:25;;;;;;;25.08;5.82;;;7.40;99.90;;;;;;5098115;28;20031;-67
2022/01/18 11:59:59;;;;;;;20.95;5.95;;;7.30;99.90;;;;;;5099435;28;20020;-66
2022/01/18 12:02:37;;;;;;;20.63;5.65;;;7.30;99.90;;;;;;5098626;28;20157;-66
2022/01/18 12:05:13;;;;;;;22.10;5.55;;;7.30;99.90;;;;;;5099124;28;20328;-66
2022/01/18 12:07:43;;;;;;;18.02;5.43;;;7.30;99.90;;;;;;5098664;28;20026;-66
2022/01/18 12:10:33;;;;;;;27.85;6.07;;;7.30;99.90;;;;;;5098539;28;20039;-67
2022/01/18 12:13:10;;;;;;;16.60;4.22;;;7.30;99.90;;;;;;5085806;28;20040;-66
2022/01/18 12:15:39;;;;;;;15.68;4.57;;;7.40;99.90;;;;;;5098270;28;20420;-66
2022/01/18 12:18:19;;;;;;;21.40;4.32;;;7.40;99.90;;;;;;5097534;28;20021;-66
2022/01/18 12:20:48;;;;;;;20.48;4.72;;;7.40;99.90;;;;;;5097746;28;20445;-67
2022/01/18 12:23:43;;;;;;;25.30;5.85;;;7.50;99.90;;;;;;5097137;28;20115;-67
2022/01/18 12:26:46;;;;;;;18.20;3.67;;;7.50;99.90;;;;;;5097166;28;20488;-66
2022/01/18 12:34:38;;;;;;;17.33;4.65;;;7.50;99.90;;;;;;5097239;28;20020;-67
2022/01/18 12:37:20;;;;;;;19.50;4.03;;;7.50;99.90;;;;;;5097107;28;20027;-66
2022/01/18 12:39:51;;;;;;;12.70;4.80;;;7.50;99.90;;;;;;5097463;28;20032;-66
2022/01/18 12:45:10;;;;;;;25.48;5.50;;;7.60;99.90;;;;;;5097992;28;20020;-66
2022/01/18 12:47:42;;;;;;;23.13;5.15;;;7.50;99.90;;;;;;5097885;28;20016;-67
2022/01/18 12:50:12;;;;;;;22.75;5.75;;;7.50;99.90;;;;;;5098106;28;20024;-67
2022/01/18 12:52:59;;;;;;;25.35;4.85;;;7.50;99.90;;;;;;5097799;28;20028;-67
2022/01/18 12:55:40;;;;;;;12.57;3.88;;;7.40;99.90;;;;;;5097829;28;20416;-66
2022/01/18 12:58:10;;;;;;;18.10;4.43;;;7.40;99.90;;;;;;5097770;28;20054;-66
2022/01/18 13:00:41;;;;;;;24.27;5.50;;;7.30;99.90;;;;;;5096763;28;20028;-67
2022/01/18 13:03:09;;;;;;;19.92;3.92;;;7.30;99.90;;;;;;5096645;28;20365;-67
2022/01/18 13:05:38;;;;;;;23.25;5.70;;;7.30;99.90;;;;;;5096674;28;20034;-66
2022/01/18 13:08:07;;;;;;;22.95;4.88;;;7.20;99.90;;;;;;5096514;28;20063;-65
2022/01/18 13:10:44;;;;;;;24.65;5.45;;;7.20;99.90;;;;;;5078680;28;20423;-68
2022/01/18 13:13:15;;;;;;;17.60;4.30;;;7.10;99.90;;;;;;5078597;28;20107;-66
2022/01/18 13:24:33;;;;;;;22.73;4.57;;;7.00;99.90;;;;;;5077501;28;20128;-66
2022/01/18 13:27:00;;;;;;;16.55;4.53;;;7.00;99.90;;;;;;5077003;28;20028;-66
2022/01/18 13:29:29;;;;;;;18.10;4.22;;;7.00;99.90;;;;;;5079749;28;20020;-67
2022/01/18 13:32:07;;;;;;;16.77;4.88;;;7.00;99.90;;;;;;5081481;28;20021;-66
2022/01/18 13:34:38;;;;;;;18.38;4.13;;;7.00;99.90;;;;;;5081654;28;20021;-67
2022/01/18 13:37:07;;;;;;;13.80;4.05;;;7.00;99.90;;;;;;5081112;28;20051;-66
2022/01/18 13:39:45;;;;;;;20.13;4.68;;;7.10;99.90;;;;;;5081482;28;20102;-69
2022/01/18 13:42:19;;;;;;;12.50;4.13;;;7.10;99.90;;;;;;5062452;28;20420;-67
2022/01/18 13:45:08;;;;;;;16.92;4.57;;;7.10;99.90;;;;;;5080184;28;20024;-66
2022/01/18 13:47:52;;;;;;;17.60;4.60;;;7.10;99.90;;;;;;5079996;28;20024;-66
2022/01/18 13:50:41;;;;;;;19.05;4.75;;;7.10;99.90;;;;;;5080006;28;20023;-66
2022/01/18 13:53:26;;;;;;;18.33;5.82;;;7.20;99.90;;;;;;5079965;28;20025;-66
2022/01/18 13:56:02;;;;;;;15.30;3.20;;;7.20;99.90;;;;;;5079804;28;20489;-66
2022/01/18 13:58:36;;;;;;;14.43;2.83;;;7.20;99.90;;;;;;5062109;28;20036;-66
2022/01/18 14:01:20;;;;;;;13.90;2.70;;;7.30;99.90;;;;;;5079665;28;20029;-67
2022/01/18 14:03:55;;;;;;;16.20;2.33;;;7.30;99.90;;;;;;5080089;28;20367;-67
2022/01/18 14:06:39;;;;;;;16.98;3.35;;;7.30;99.90;;;;;;5080829;28;20024;-66
2022/01/18 14:09:08;;;;;;;17.10;3.38;;;7.30;99.90;;;;;;5080530;28;20024;-66
2022/01/18 14:11:37;;;;;;;13.57;3.50;;;7.30;99.90;;;;;;5080773;28;20408;-66
2022/01/18 14:14:20;;;;;;;13.68;2.75;;;7.30;99.90;;;;;;5080692;28;20302;-66
2022/01/18 14:16:57;;;;;;;12.25;3.20;;;7.30;99.90;;;;;;5080389;28;20051;-66
2022/01/18 14:19:40;;;;;;;;;;;7.30;99.90;;;;;;5080586;28;20407;-66
2022/01/18 14:22:24;;;;;;;8.25;1.80;;;7.30;99.90;;;;;;5087013;28;20220;-66
2022/01/18 14:24:57;;;;;;;11.93;2.25;;;7.30;99.90;;;;;;5099707;28;20465;-66
2022/01/18 14:27:41;;;;;;;5.70;2.00;;;7.30;99.90;;;;;;5099777;28;20032;-67
2022/01/18 14:30:21;;;;;;;12.30;2.30;;;7.30;99.90;;;;;;5099431;28;20016;-67
2022/01/18 14:32:51;;;;;;;9.23;2.40;;;7.20;99.90;;;;;;5081471;28;20020;-67
2022/01/18 14:35:24;;;;;;;16.20;2.35;;;7.20;99.90;;;;;;5098538;28;20024;-67
2022/01/18 14:38:10;;;;;;;11.50;2.55;;;7.20;99.90;;;;;;5099294;28;20043;-67
2022/01/18 14:40:44;;;;;;;12.13;2.47;;;7.20;99.90;;;;;;5098509;28;20038;-67
2022/01/18 14:43:28;;;;;;;8.38;2.63;;;7.20;99.90;;;;;;5099348;28;20431;-67
2022/01/18 14:46:02;;;;;;;11.65;2.17;;;7.10;99.90;;;;;;5099679;28;20024;-67
2022/01/18 14:48:33;;;;;;;11.32;1.90;;;7.10;99.90;;;;;;5083422;28;20047;-66